Almont, Michigan
Current Conditions -  °F | °C
As of 9:34 PM on Saturday 25 Oct 2014 (Local Time) from KD95 Reporting Station
Clear Clear  
Wind Chill: 13°   Ceiling: Unl
Heat Index: 13°   Visibility: 10mi
Dew Point: -1°   Wind: 8mph
Humidity: 41%   Direction: 300°WNW
Pressure: 29.78"   Gusts: NA
Location:  42.92°N, 83.04°W
Report Text: KD95 260134Z AUTO 30007KT 10SM CLR 13/M01 A2978 RMK AO2 T01251006
Loading
Personal Weather Stations






























Interactive Weather Map
Tropical Storm Tracking
New forecast layout! Learn more

10-Day Weather Forecast

Advertisements
Track Severe Weather on mobile